New Concord, OH (43762)

4:23 PM EDT on July 04, 2015 (GMT -0400)
Downtown Cambridge | | Change Station
CLOSE
Current Station
Personal Weather Station
Location: Cambridge, OH
Elevation: 876 ft
Nearby Weather Stations

Elev 876 ft 40.03 °N, 81.59 °W | Updated 2 seconds ago

Clear
Clear
82.0 °F
Feels Like 82 °F
N
5.0
Wind Variable Wind from West
Gusts 14.0 mph

Today
High -- | Low -- °F
--% Chance of Precip.
Yesterday
High -- | Low -- °F
Precip. -- in
6:03 AM 8:59 PM
Waning Gibbous, 90% visible
Pressure 29.97 in
Visibility 10.0 miles
Clouds Few 4500 ft
Heat Index 82 °F
Dew Point 57 °F
Humidity 43%
Rainfall 0.00 in
Snow Depth Not available.
UV 8 out of 12
Pollen 3.10 out of 12
Air Quality Not available.
Flu Activity Not available.
METAR KZZV 041953Z AUTO 00000KT 10SM FEW045 26/14 A2999 RMK AO2 SLP149 T02560144

More Conditions Fewer Conditions

Pressure 29.97 in
Visibility 10.0 miles
Clouds Few 4500 ft
Heat Index 82 °F
Dew Point 57 °F
Humidity 43%
Rainfall 0.00 in
Snow Depth Not available.
UV 8 out of 12
Pollen 3.10 out of 12
Air Quality Not available.
Flu Activity Not available.
METAR KZZV 041953Z AUTO 00000KT 10SM FEW045 26/14 A2999 RMK AO2 SLP149 T02560144

More Conditions Fewer Conditions

10-Day Weather Forecast

×

Almanac

Astronomy

Jul. 04, 2015 Rise Set
Actual Time
Civil Twilight
Nautical Twilight
Astronomical Twilight
Moon
Length of Visible Light
Length of Day
Tomorrow will be .
, % of the Moon is Illuminated

Today's Extremes

State Highs State Lows

Community

WunderPhotos

Upload Photos

1,835,086 photos uploaded!

WunderBlogs® & News

Nearby

Air Quality

  Air Quality AQ Index Pollutant
Not available.

Snow Depth

Station Depth Elevation

Earthquake Activity

City Distance Mag. Time & Date
Minimum magnitude displayed is 2.5.

Coastal Water Temperatures

Place Temperature

Stations

Nearby Weather Stations

Station Location Temp. Windchill Dew Point Humidity Wind Precip. Elev Updated Type